createdAt,value
2023-03-16T00:00:55.748Z,2.97
2023-03-16T00:04:40.507Z,3.20
2023-03-16T00:08:22.333Z,3.05
2023-03-16T00:12:04.191Z,3.00
2023-03-16T00:16:00.172Z,3.08
2023-03-16T00:19:46.875Z,3.30
2023-03-16T00:23:29.663Z,2.67
2023-03-16T00:27:16.189Z,3.67
2023-03-16T00:30:59.185Z,3.30
2023-03-16T00:34:41.188Z,4.10
2023-03-16T00:38:23.000Z,4.35
2023-03-16T00:42:04.784Z,3.28
2023-03-16T00:45:46.846Z,3.67
2023-03-16T00:49:28.708Z,3.20
2023-03-16T00:53:10.862Z,2.90
2023-03-16T00:56:52.944Z,4.22
2023-03-16T01:00:34.685Z,2.70
2023-03-16T01:04:16.384Z,3.08
2023-03-16T01:07:59.673Z,3.10
2023-03-16T01:15:26.943Z,3.08
2023-03-16T01:19:08.834Z,3.15
2023-03-16T01:22:51.462Z,3.35
2023-03-16T01:26:33.869Z,3.03
2023-03-16T01:30:15.858Z,2.87
2023-03-16T01:33:58.099Z,3.67
2023-03-16T01:37:39.804Z,3.10
2023-03-16T01:41:22.214Z,2.90
2023-03-16T01:45:05.871Z,3.60
2023-03-16T01:49:10.840Z,3.63
2023-03-16T01:52:52.663Z,3.00
2023-03-16T01:56:41.773Z,4.53
2023-03-16T02:00:31.429Z,3.15
2023-03-16T02:04:44.635Z,3.00
2023-03-16T02:08:27.805Z,2.90
2023-03-16T02:12:18.478Z,3.45
2023-03-16T02:16:00.433Z,4.25
2023-03-16T02:19:42.216Z,3.75
2023-03-16T02:23:25.350Z,5.00
2023-03-16T02:27:17.667Z,4.80
2023-03-16T02:31:00.311Z,4.20
2023-03-16T02:34:43.015Z,4.05
2023-03-16T02:38:24.769Z,3.67
2023-03-16T02:42:10.963Z,3.85
2023-03-16T02:45:58.556Z,3.42
2023-03-16T02:49:43.631Z,3.60
2023-03-16T02:53:25.501Z,3.42
2023-03-16T02:57:07.239Z,3.67
2023-03-16T03:00:48.989Z,3.72
2023-03-16T03:04:32.972Z,3.60
2023-03-16T03:08:15.382Z,3.47
2023-03-16T03:11:57.172Z,3.27
2023-03-16T03:15:39.034Z,3.70
2023-03-16T03:19:20.876Z,3.28
2023-03-16T03:23:03.146Z,3.55
2023-03-16T03:26:45.091Z,3.53
2023-03-16T03:30:27.959Z,3.55
2023-03-16T03:34:10.008Z,3.65
2023-03-16T03:37:51.838Z,3.45
2023-03-16T03:41:33.960Z,2.95
2023-03-16T03:45:16.380Z,4.53
2023-03-16T03:49:03.701Z,3.80
2023-03-16T03:52:45.389Z,2.97
2023-03-16T03:56:27.216Z,3.58
2023-03-16T04:00:13.371Z,3.35
2023-03-16T04:03:55.113Z,3.50
2023-03-16T04:07:37.075Z,3.40
2023-03-16T04:11:18.769Z,3.00
2023-03-16T04:15:00.507Z,3.20
2023-03-16T04:18:42.711Z,2.58
2023-03-16T04:22:24.513Z,3.38
2023-03-16T04:26:06.223Z,3.45
2023-03-16T04:29:47.961Z,3.95
2023-03-16T04:33:29.685Z,3.42
2023-03-16T04:37:11.901Z,3.60
2023-03-16T04:40:53.773Z,3.25
2023-03-16T04:44:44.048Z,3.00
2023-03-16T04:48:25.888Z,3.53
2023-03-16T04:52:08.512Z,3.20
2023-03-16T04:55:50.283Z,3.33
2023-03-16T04:59:32.174Z,2.72
2023-03-16T05:03:14.190Z,3.17
2023-03-16T05:06:56.021Z,3.10
2023-03-16T05:10:38.591Z,3.10
2023-03-16T05:14:20.548Z,3.10
2023-03-16T05:18:02.239Z,3.05
2023-03-16T05:21:45.763Z,2.60
2023-03-16T05:25:27.561Z,3.75
2023-03-16T05:29:09.347Z,3.00
2023-03-16T05:32:51.430Z,3.20
2023-03-16T05:36:35.850Z,3.35
2023-03-16T05:40:18.137Z,2.50
2023-03-16T05:43:59.931Z,3.05
2023-03-16T05:47:42.321Z,2.72
2023-03-16T05:51:26.440Z,3.23
2023-03-16T05:55:09.613Z,3.08
2023-03-16T05:58:53.045Z,2.92
2023-03-16T06:02:34.848Z,2.88
2023-03-16T06:06:17.374Z,2.67
2023-03-16T06:09:59.140Z,2.92
2023-03-16T06:13:41.357Z,2.80
2023-03-16T06:17:23.388Z,2.97
2023-03-16T06:21:05.269Z,2.80
2023-03-16T06:24:47.281Z,2.42
2023-03-16T06:28:32.768Z,3.40
2023-03-16T06:32:14.911Z,4.25
2023-03-16T06:35:56.808Z,3.40
2023-03-16T06:39:39.154Z,3.13
2023-03-16T06:43:20.947Z,2.65
2023-03-16T06:47:02.815Z,3.92
2023-03-16T06:50:46.670Z,3.40
2023-03-16T06:54:28.431Z,3.55
2023-03-16T06:58:10.876Z,4.00
2023-03-16T07:01:52.646Z,4.60
2023-03-16T07:05:34.451Z,2.78
2023-03-16T07:09:16.315Z,3.03
2023-03-16T07:12:58.005Z,2.50
2023-03-16T07:16:43.170Z,2.50
2023-03-16T07:20:26.922Z,2.88
2023-03-16T07:24:10.310Z,2.72
2023-03-16T07:27:52.016Z,2.67
2023-03-16T07:31:34.705Z,2.92
2023-03-16T07:35:17.242Z,2.38
2023-03-16T07:38:59.217Z,3.20
2023-03-16T07:42:41.385Z,3.40
2023-03-16T07:46:27.407Z,3.00
2023-03-16T07:50:11.451Z,2.90
2023-03-16T07:53:53.943Z,2.75
2023-03-16T07:57:35.672Z,2.75
2023-03-16T08:01:17.473Z,2.92
2023-03-16T08:04:59.538Z,2.38
2023-03-16T08:08:41.335Z,2.60
2023-03-16T08:12:23.096Z,2.55
2023-03-16T08:16:05.468Z,2.83
2023-03-16T08:19:47.546Z,3.77
2023-03-16T08:23:30.680Z,2.40
2023-03-16T08:27:13.257Z,2.78
2023-03-16T08:30:55.637Z,2.10
2023-03-16T08:34:37.610Z,2.92
2023-03-16T08:38:20.180Z,2.50
2023-03-16T08:42:03.311Z,2.72
2023-03-16T08:45:46.098Z,2.15
2023-03-16T08:49:34.869Z,2.75
2023-03-16T08:53:16.698Z,2.65
2023-03-16T08:56:58.643Z,2.92
2023-03-16T09:00:41.366Z,2.80
2023-03-16T09:04:23.556Z,3.05
2023-03-16T09:08:06.199Z,2.60
2023-03-16T09:11:49.838Z,2.40
2023-03-16T09:15:31.578Z,2.42
2023-03-16T09:19:13.549Z,3.15
2023-03-16T09:22:56.489Z,2.58
2023-03-16T09:26:39.923Z,2.33
2023-03-16T09:30:21.778Z,2.67
2023-03-16T09:34:04.959Z,2.80
2023-03-16T09:42:13.779Z,2.45
2023-03-16T09:46:11.191Z,2.67
2023-03-16T09:49:56.926Z,3.13
2023-03-16T09:53:39.560Z,2.65
2023-03-16T09:57:35.665Z,2.40
2023-03-16T10:01:27.261Z,2.42
2023-03-16T10:05:12.313Z,2.33
2023-03-16T10:09:02.976Z,2.75
2023-03-16T10:12:50.597Z,2.85
2023-03-16T10:16:51.623Z,2.95
2023-03-16T10:20:34.926Z,2.47
2023-03-16T10:28:07.447Z,2.33
2023-03-16T10:31:49.279Z,2.13
2023-03-16T10:35:54.072Z,2.10
2023-03-16T10:39:37.232Z,2.65
2023-03-16T10:47:04.841Z,2.28
2023-03-16T10:50:53.777Z,2.22
2023-03-16T10:54:40.033Z,2.95
2023-03-16T10:58:32.505Z,2.80
2023-03-16T11:02:20.903Z,2.65
2023-03-16T11:06:08.907Z,2.47
2023-03-16T11:09:52.532Z,3.83
2023-03-16T11:13:38.660Z,2.33
2023-03-16T11:17:36.893Z,2.33
2023-03-16T11:21:39.789Z,3.40
2023-03-16T11:25:30.629Z,2.10
2023-03-16T11:29:39.839Z,2.00
2023-03-16T11:33:22.999Z,2.13
2023-03-16T11:37:04.898Z,2.28
2023-03-16T11:41:10.564Z,2.60
2023-03-16T11:44:59.450Z,2.10
2023-03-16T11:49:00.311Z,2.33
2023-03-16T11:53:00.305Z,2.42
2023-03-16T11:57:20.187Z,2.83
2023-03-16T12:01:13.306Z,2.97
2023-03-16T12:09:24.484Z,1.90
2023-03-16T12:13:30.712Z,2.22
2023-03-16T12:17:15.782Z,2.30
2023-03-16T12:21:05.664Z,3.00
2023-03-16T12:24:48.208Z,2.53
2023-03-16T12:28:31.850Z,2.72
2023-03-16T12:32:36.635Z,2.63
2023-03-16T12:36:49.449Z,2.55
2023-03-16T12:40:59.830Z,3.13
2023-03-16T12:44:47.525Z,2.95
2023-03-16T12:48:33.973Z,2.75
2023-03-16T12:52:15.849Z,2.92
2023-03-16T12:55:57.864Z,2.90
2023-03-16T12:59:52.697Z,3.15
2023-03-16T13:03:34.634Z,2.85
2023-03-16T13:07:23.902Z,2.58
2023-03-16T13:11:09.601Z,2.70
2023-03-16T13:14:54.930Z,2.63
2023-03-16T13:18:45.010Z,3.72
2023-03-16T13:22:30.370Z,3.00
2023-03-16T13:26:31.423Z,2.50
2023-03-16T13:30:34.373Z,3.22
2023-03-16T13:34:23.421Z,3.28
2023-03-16T13:38:06.949Z,3.00
2023-03-16T13:41:59.719Z,3.92
2023-03-16T13:45:42.117Z,3.83
2023-03-16T13:49:24.576Z,4.22
2023-03-16T13:53:15.590Z,3.20
2023-03-16T13:57:03.582Z,3.50
2023-03-16T14:00:45.864Z,3.97
2023-03-16T14:04:33.910Z,4.20
2023-03-16T14:08:21.752Z,3.08
2023-03-16T14:12:03.809Z,3.78
2023-03-16T14:15:45.533Z,3.20
2023-03-16T14:19:34.520Z,4.40
2023-03-16T14:23:25.859Z,4.22
2023-03-16T14:27:19.381Z,3.25
2023-03-16T14:31:11.820Z,3.35
2023-03-16T14:35:00.436Z,3.90
2023-03-16T14:38:44.421Z,3.97
2023-03-16T14:42:30.136Z,3.78
2023-03-16T14:46:17.067Z,4.88
2023-03-16T14:50:06.895Z,4.30
2023-03-16T14:53:48.704Z,3.90
2023-03-16T14:57:30.764Z,3.60
2023-03-16T15:01:17.996Z,4.10
2023-03-16T15:05:01.349Z,3.80
2023-03-16T15:08:46.859Z,3.20
2023-03-16T15:12:28.623Z,4.35
2023-03-16T15:16:12.406Z,4.07
2023-03-16T15:19:54.588Z,3.20
2023-03-16T15:23:36.668Z,3.85
2023-03-16T15:27:22.561Z,3.45
2023-03-16T15:31:05.317Z,4.00
2023-03-16T15:34:47.129Z,4.72
2023-03-16T15:38:33.428Z,4.07
2023-03-16T15:42:19.536Z,3.42
2023-03-16T15:46:01.247Z,3.08
2023-03-16T15:49:47.935Z,3.58
2023-03-16T15:53:40.033Z,4.00
2023-03-16T15:57:21.725Z,4.13
2023-03-16T16:01:04.984Z,4.30
2023-03-16T16:04:46.744Z,3.95
2023-03-16T16:08:28.516Z,4.93
2023-03-16T16:12:14.253Z,5.93
2023-03-16T16:15:57.103Z,4.97
2023-03-16T16:19:39.262Z,5.18
2023-03-16T16:23:21.303Z,4.43
2023-03-16T16:27:03.260Z,4.00
2023-03-16T16:30:46.009Z,4.45
2023-03-16T16:34:28.159Z,4.28
2023-03-16T16:38:10.013Z,4.85
2023-03-16T16:41:54.731Z,4.00
2023-03-16T16:45:37.033Z,4.75
2023-03-16T16:49:24.870Z,4.93
2023-03-16T16:53:20.685Z,4.57
2023-03-16T16:57:03.026Z,4.47
2023-03-16T17:00:52.656Z,4.20
2023-03-16T17:04:34.570Z,4.82
2023-03-16T17:08:17.110Z,4.80
2023-03-16T17:12:00.908Z,4.57
2023-03-16T17:15:44.012Z,4.05
2023-03-16T17:19:28.568Z,4.18
2023-03-16T17:23:34.905Z,3.67
2023-03-16T17:27:23.567Z,4.32
2023-03-16T17:31:06.149Z,3.65
2023-03-16T17:34:48.418Z,4.63
2023-03-16T17:38:31.832Z,4.50
2023-03-16T17:42:18.373Z,4.50
2023-03-16T17:46:04.530Z,3.92
2023-03-16T17:49:48.759Z,3.78
2023-03-16T17:53:30.687Z,4.20
2023-03-16T17:57:27.338Z,5.22
2023-03-16T18:01:11.794Z,5.53
2023-03-16T18:04:53.529Z,3.78
2023-03-16T18:08:36.028Z,4.65
2023-03-16T18:12:17.746Z,4.25
2023-03-16T18:16:00.437Z,3.53
2023-03-16T18:19:43.440Z,4.63
2023-03-16T18:23:28.173Z,3.75
2023-03-16T18:27:11.065Z,3.80
2023-03-16T18:30:53.605Z,5.10
2023-03-16T18:34:35.592Z,4.90
2023-03-16T18:38:35.234Z,4.93
2023-03-16T18:42:24.136Z,4.70
2023-03-16T18:46:06.048Z,4.75
2023-03-16T18:49:53.981Z,4.88
2023-03-16T18:53:35.732Z,5.15
2023-03-16T18:57:20.140Z,4.68
2023-03-16T19:01:02.604Z,5.18
2023-03-16T19:04:45.609Z,4.82
2023-03-16T19:08:28.907Z,6.35
2023-03-16T19:15:57.876Z,5.78
2023-03-16T19:19:39.825Z,5.10
2023-03-16T19:23:28.532Z,5.47
2023-03-16T19:27:22.149Z,4.65
2023-03-16T19:31:17.864Z,4.72
2023-03-16T19:34:59.675Z,4.88
2023-03-16T19:38:41.435Z,4.88
2023-03-16T19:42:27.780Z,4.95
2023-03-16T19:46:15.066Z,4.72
2023-03-16T19:49:58.643Z,5.15
2023-03-16T19:53:41.335Z,4.60
2023-03-16T19:57:23.394Z,4.50
2023-03-16T20:01:12.401Z,5.28
2023-03-16T20:04:55.286Z,5.63
2023-03-16T20:08:37.004Z,4.80
2023-03-16T20:12:22.991Z,4.50
2023-03-16T20:16:05.437Z,4.82
2023-03-16T20:19:47.205Z,5.40
2023-03-16T20:23:30.263Z,4.80
2023-03-16T20:27:12.793Z,5.30
2023-03-16T20:30:54.667Z,3.95
2023-03-16T20:34:36.641Z,3.50
2023-03-16T20:38:18.408Z,3.75
2023-03-16T20:42:00.236Z,4.75
2023-03-16T20:45:43.175Z,4.38
2023-03-16T20:49:25.370Z,4.18
2023-03-16T20:53:07.438Z,4.13
2023-03-16T20:56:49.335Z,4.28
2023-03-16T21:00:36.848Z,3.95
2023-03-16T21:04:27.504Z,3.28
2023-03-16T21:08:09.571Z,4.30
2023-03-16T21:11:51.547Z,4.50
2023-03-16T21:15:34.114Z,3.60
2023-03-16T21:19:19.031Z,4.13
2023-03-16T21:23:01.389Z,4.30
2023-03-16T21:26:44.944Z,5.70
2023-03-16T21:30:28.957Z,4.10
2023-03-16T21:34:26.513Z,3.83
2023-03-16T21:38:17.649Z,3.60
2023-03-16T21:41:59.394Z,3.75
2023-03-16T21:45:42.044Z,3.50
2023-03-16T21:49:23.852Z,3.50
2023-03-16T21:53:05.821Z,3.30
2023-03-16T21:56:50.611Z,2.70
2023-03-16T22:00:33.185Z,3.15
2023-03-16T22:04:17.160Z,2.85
2023-03-16T22:08:00.556Z,2.60
2023-03-16T22:11:42.322Z,2.50
2023-03-16T22:15:25.624Z,2.60
2023-03-16T22:19:12.106Z,2.58
2023-03-16T22:22:55.841Z,2.95
2023-03-16T22:26:37.539Z,3.05
2023-03-16T22:30:22.698Z,2.80
2023-03-16T22:34:05.190Z,2.33
2023-03-16T22:37:47.245Z,2.65
2023-03-16T22:41:30.056Z,2.63
2023-03-16T22:45:14.559Z,3.00
2023-03-16T22:48:57.164Z,3.92
2023-03-16T22:52:39.293Z,2.85
2023-03-16T22:56:21.064Z,3.70
2023-03-16T23:00:07.243Z,3.20
2023-03-16T23:03:51.211Z,3.75
2023-03-16T23:07:32.938Z,4.07
2023-03-16T23:11:30.978Z,3.80
2023-03-16T23:15:21.354Z,3.67
2023-03-16T23:19:29.715Z,3.90
2023-03-16T23:23:11.941Z,3.47
2023-03-16T23:26:54.811Z,3.83
2023-03-16T23:30:38.083Z,4.28
2023-03-16T23:38:03.244Z,3.47
2023-03-16T23:41:50.020Z,4.47
2023-03-16T23:45:43.544Z,3.92
2023-03-16T23:49:33.645Z,4.35
2023-03-16T23:53:19.253Z,4.22
2023-03-16T23:57:01.540Z,3.72
